CW1390 East Haven CT US current weather conditions

sailwx.info

Wind from 185

Air temperature 12.2° C
Dewpoint 0.3° C

Last reported at 2020-Oct-25 20:05 UTC.
Time now 2020-Oct-26 00:50 UTC

Location: N 41°18' W 072°52'.
View on Google Maps.

See reports from other nearby stations

  
Tides and Currents Weather Stations Pressure Air Temp Water Temp Dewpoint Dewpoint Depression Visibility Wind Speed Wind Dir Waves Ship Positions
date/time (UTC)wind fromknots sea level pressurealtimeterstation pressurevisibilityair tempwater tempwave heightnotes
2020-Oct-25 20:05 185 12.2
2020-Oct-25 18:05
2020-Oct-25 17:05 351 1 9.4
2020-Oct-25 16:00
2020-Oct-25 15:05 357 5 8.9
2020-Oct-25 14:05
2020-Oct-25 13:05
2020-Oct-25 12:10
2020-Oct-25 12:00
2020-Oct-25 11:05 348 5.0
2020-Oct-25 10:10
2020-Oct-25 10:05
2020-Oct-25 09:05 348 5.6
2020-Oct-25 09:00 348 5.6
2020-Oct-24 18:30 239 1 gusting 4 18.3
2020-Oct-24 18:25 242 0 gusting 4 18.3
2020-Oct-24 18:20 247 0 gusting 4 18.3
2020-Oct-24 18:15 238 1 gusting 4 18.3
2020-Oct-24 18:05 230 1 gusting 5 17.8
2020-Oct-24 17:55 230 4 gusting 6 17.8
2020-Oct-24 17:50 230 2 gusting 5 17.8
2020-Oct-24 17:40 232 1 gusting 6 17.8
2020-Oct-24 17:35 233 2 gusting 7 17.8
2020-Oct-24 17:25 236 4 gusting 10 17.8
2020-Oct-24 17:20 224 2 gusting 8 17.8
2020-Oct-24 17:10 229 2 gusting 6 17.8
2020-Oct-24 17:05 242 2 gusting 8 17.8
2020-Oct-24 16:55 221 2 gusting 6 17.8
2020-Oct-24 16:50 238 4 gusting 6 17.8
2020-Oct-24 16:45 224 4 gusting 6 17.8
2020-Oct-24 16:40 226 2 gusting 6 17.8
2020-Oct-24 16:35 232 4 gusting 7 17.8
2020-Oct-24 16:25 237 4 gusting 10 17.8
2020-Oct-24 16:15 237 3 gusting 10 17.8
2020-Oct-24 16:05 227 4 gusting 8 17.8
2020-Oct-24 15:55 237 3 gusting 8 17.8
2020-Oct-24 15:45 227 4 gusting 7 17.8
2020-Oct-24 15:40 228 3 gusting 7 17.8
2020-Oct-24 15:35 239 4 gusting 10 17.8
2020-Oct-24 15:25 243 4 gusting 10 17.2
2020-Oct-24 15:20 238 6 gusting 11 17.2
2020-Oct-24 15:10 236 4 gusting 12 17.2
2020-Oct-24 15:05 233 5 gusting 10 17.2
2020-Oct-24 14:55 239 6 gusting 12 17.8
2020-Oct-24 14:45 232 2 gusting 8 17.8
2020-Oct-24 14:40 235 2 gusting 6 17.8
2020-Oct-24 14:35 225 3 gusting 8 17.8
2020-Oct-24 14:25 232 2 gusting 8 17.8
2020-Oct-24 14:20 226 2 gusting 6 17.8
2020-Oct-24 14:10 237 2 gusting 6 17.8
2020-Oct-24 14:05 246 1 gusting 5 17.8
2020-Oct-24 13:55 219 0 gusting 2 17.8
2020-Oct-24 13:50 235 0 gusting 2 17.8
2020-Oct-24 13:40 227 0 gusting 2 17.2
2020-Oct-24 13:35 226 1 gusting 2 17.2
2020-Oct-24 13:25 239 1 gusting 2 17.2
2020-Oct-24 13:20 185 0 gusting 2 17.2
2020-Oct-24 13:10 190 2 gusting 5 17.2
2020-Oct-24 13:05 226 0 gusting 2 17.2
2020-Oct-24 13:00 210 0 gusting 2 17.2
2020-Oct-24 12:55 219 17.2
2020-Oct-24 12:50 174 17.2
2020-Oct-24 12:45 153 0 gusting 1 17.2
2020-Oct-24 12:40 153 0 gusting 1 17.2
2020-Oct-24 12:35 154 0 gusting 1 16.7
2020-Oct-24 12:25 165 0 gusting 1 16.7
2020-Oct-24 12:20 262 0 gusting 2 16.7
2020-Oct-24 12:15 181 0 gusting 2 16.7
2020-Oct-24 12:10 169 0 gusting 1 16.7
2020-Oct-24 12:05 169 0 gusting 1 16.7
2020-Oct-24 11:55 200 0 gusting 1 16.7
2020-Oct-24 11:50 202 16.7
2020-Oct-24 11:45 202 16.7
2020-Oct-24 11:35 202 16.7
2020-Oct-24 11:25 204 0 gusting 1 16.7
2020-Oct-24 11:20 213 0 gusting 1 16.7
2020-Oct-24 11:10 213 16.7
2020-Oct-24 11:05 213 16.7
2020-Oct-24 10:55 214 16.7
2020-Oct-24 10:50 214 16.7
2020-Oct-24 10:40 217 16.7
2020-Oct-24 10:35 170 0 gusting 2 16.7
2020-Oct-24 10:25 224 0 gusting 1 16.7
2020-Oct-24 10:20 225 0 gusting 2 16.7
2020-Oct-24 10:10 216 16.7
2020-Oct-24 10:05 216 16.7
2020-Oct-24 09:55 241 0 gusting 2 16.7
2020-Oct-24 09:50 161 1 gusting 4 16.7
2020-Oct-24 09:40 222 0 gusting 1 16.7
2020-Oct-24 09:35 088 16.7
2020-Oct-24 09:25 088 16.7
2020-Oct-24 09:20 088 16.7
2020-Oct-24 09:10 103 16.7
2020-Oct-24 09:00 154 0 gusting 2 16.7
2020-Oct-24 08:55 174 0 gusting 2 16.7
2020-Oct-24 08:50 236 0 gusting 1 16.1
2020-Oct-24 08:45 154 0 gusting 1 16.1
2020-Oct-24 08:40 206 0 gusting 2 16.1
2020-Oct-24 08:30 201 16.1
2020-Oct-24 08:25 161 0 gusting 5 16.1
2020-Oct-24 08:15 160 16.1
2020-Oct-24 08:10 117 0 gusting 2 16.1
2020-Oct-24 08:06 149 1 gusting 5 16.1
2020-Oct-24 08:00 131 1 gusting 2 16.1
2020-Oct-24 07:55 186 0 gusting 2 16.1
2020-Oct-24 07:50 169 16.1
2020-Oct-24 07:45 179 0 gusting 2 16.1
2020-Oct-24 07:40 163 16.1
2020-Oct-24 07:35 146 16.1
2020-Oct-24 07:25 144 0 gusting 2 16.1
2020-Oct-24 07:20 138 0 gusting 2 16.1
2020-Oct-24 07:10 146 0 gusting 2 16.1
2020-Oct-24 07:05 123 16.1
2020-Oct-24 06:55 111 16.1
2020-Oct-24 06:50 112 16.1
2020-Oct-24 06:40 132 16.1
2020-Oct-24 06:35 132 0 gusting 1 16.1
2020-Oct-24 06:25 129 0 gusting 2 16.1
2020-Oct-24 06:20 129 0 gusting 2 16.1
2020-Oct-24 06:10 128 0 gusting 2 16.1
2020-Oct-24 06:05 128 1 gusting 2 16.1
2020-Oct-24 05:55 124 0 gusting 1 16.1
2020-Oct-24 05:50 128 0 gusting 2 16.1
2020-Oct-24 05:40 124 0 gusting 2 16.1
2020-Oct-24 05:35 125 0 gusting 2 16.1
2020-Oct-24 05:25 136 0 gusting 2 16.1
2020-Oct-24 05:15 136 0 gusting 2 16.1
2020-Oct-24 05:10 132 0 gusting 2 16.1
2020-Oct-24 05:05 148 1 gusting 2 16.1
2020-Oct-24 05:00 152 0 gusting 1 16.1
2020-Oct-24 04:55 152 16.1
2020-Oct-24 04:50 152 16.1
2020-Oct-24 04:45 152 16.1
2020-Oct-24 04:35 152 16.1
2020-Oct-24 04:25 152 16.1
2020-Oct-24 04:20 152 16.1
2020-Oct-24 04:10 152 16.1
2020-Oct-24 04:05 152 16.1
2020-Oct-24 03:55 152 16.1
2020-Oct-24 03:50 152 0 gusting 1 16.1
2020-Oct-24 03:45 153 0 gusting 1 16.1
2020-Oct-24 03:35 153 16.1
2020-Oct-24 03:25 153 16.1
2020-Oct-24 03:20 153 16.1
2020-Oct-24 03:15 153 16.1
2020-Oct-24 03:10 153 16.1
2020-Oct-24 03:05 153 16.1
2020-Oct-24 02:55 153 16.1
2020-Oct-24 02:50 153 16.1
2020-Oct-24 02:40 156 0 gusting 1 16.1
2020-Oct-24 02:35 151 0 gusting 2 16.1
2020-Oct-24 02:25 137 0 gusting 2 16.1
2020-Oct-24 02:20 139 0 gusting 2 16.1
2020-Oct-24 02:15 137 16.1
2020-Oct-24 02:10 137 16.1
2020-Oct-24 02:05 108 0 gusting 2 16.1
2020-Oct-24 01:55 127 1 gusting 4 16.1
2020-Oct-24 01:50 147 1 gusting 4 16.1
2020-Oct-24 01:45 141 0 gusting 2 16.1
2020-Oct-24 01:40 148 0 gusting 2 16.1
2020-Oct-24 01:35 142 0 gusting 2 16.1
2020-Oct-24 01:25 139 1 gusting 4 16.1
2020-Oct-24 01:20 140 1 gusting 2 16.1
2020-Oct-24 01:15 171 1 gusting 2 16.1
2020-Oct-24 01:10 124 1 gusting 6 16.1
2020-Oct-24 01:05 147 1 gusting 6 16.1
2020-Oct-24 00:55 123 0 gusting 2 16.1
2020-Oct-24 00:50 168 0 gusting 2 16.1
2020-Oct-24 00:40 120 0 gusting 2 16.1
2020-Oct-24 00:30 132 2 gusting 6 16.7
2020-Oct-24 00:25 130 2 gusting 6 16.1
2020-Oct-24 00:20 130 1 gusting 4 16.7
2020-Oct-24 00:10 141 2 gusting 5 16.7
2020-Oct-24 00:05 138 1 gusting 2 16.7
2020-Oct-24 00:00 149 1 gusting 2 16.7